Date,TemperatureHighF,TemperatureAvgF,TemperatureLowF,DewpointHighF,DewpointAvgF,DewpointLowF,HumidityHigh,HumidityAvg,HumidityLow,PressureMaxIn,PressureMinIn,WindSpeedMaxMPH,WindSpeedAvgMPH,GustSpeedMaxMPH,PrecipitationSumIn
2013-1-1,31.5,20.0,-0.4,26.0,11.6,-5.3,84,70,60,29.97,29.70,5,2,15,0.00
2013-1-2,20.0,7.0,-6.2,14.0,0.3,-12.4,84,74,59,30.27,29.92,4,1,14,0.00
2013-1-3,14.3,-2.5,-15.2,1.2,-8.9,-20.6,84,74,48,30.27,30.04,1,0,4,0.00
2013-1-4,32.4,20.6,0.3,26.2,14.7,-4.4,92,78,63,30.04,29.83,5,1,12,0.01
2013-1-5,32.7,25.4,10.9,26.3,16.6,5.8,88,70,53,30.27,29.84,6,2,16,0.00
2013-1-6,32.7,24.8,12.0,27.7,20.8,7.9,91,85,75,30.23,29.95,1,0,2,0.00
2013-1-7,31.7,21.6,11.8,29.0,15.8,7.7,91,79,57,30.40,29.98,4,1,11,0.00
2013-1-8,36.4,21.8,10.9,25.3,16.4,7.2,88,80,59,30.43,30.28,3,1,6,0.00
2013-1-9,41.4,26.6,12.7,31.2,21.2,9.3,90,81,58,30.44,29.99,7,1,12,0.00
2013-1-10,39.5,34.2,22.2,32.1,24.6,17.9,88,68,57,30.59,30.05,6,2,17,0.01
2013-1-11,35.2,28.3,17.9,32.0,23.6,14.9,91,83,65,30.59,30.20,2,0,11,0.09
2013-1-12,38.7,35.8,34.4,35.8,33.4,32.0,93,91,88,30.22,30.13,1,0,4,0.00
2013-1-13,39.9,36.7,34.4,37.8,34.8,32.6,93,93,91,30.17,29.97,2,0,7,0.00
2013-1-14,51.4,39.0,31.7,45.0,32.9,24.8,94,80,55,30.30,29.87,5,1,15,0.00
2013-1-15,34.7,30.1,25.8,27.2,23.6,19.9,89,77,58,30.35,30.26,2,0,6,0.00
2013-1-16,31.4,28.9,22.0,28.0,25.2,19.3,90,86,77,30.27,29.82,1,0,3,0.21
2013-1-17,34.4,23.5,12.9,29.0,16.8,1.2,91,76,55,30.17,29.82,4,1,11,0.01
2013-1-18,18.9,8.1,-4.5,7.8,-2.7,-10.1,78,62,39,30.42,30.12,5,1,16,0.00
2013-1-19,35.2,27.2,14.9,29.5,20.1,7.5,84,75,58,30.35,29.83,2,0,4,0.00
2013-1-20,42.2,30.0,17.7,31.8,19.6,1.3,92,66,45,29.95,29.50,8,3,29,0.00
2013-1-21,23.1,15.8,3.7,15.8,5.4,-2.1,89,64,46,30.08,29.83,3,1,13,0.01
2013-1-22,19.1,10.2,-3.4,13.6,3.6,-8.1,87,75,50,30.10,29.81,4,1,11,0.03
2013-1-23,5.6,-2.8,-13.5,-1.8,-11.7,-19.1,82,66,41,30.22,30.07,4,1,11,0.00
2013-1-24,10.9,-3.2,-19.5,-7.0,-14.4,-25.4,78,60,39,30.37,30.18,5,2,18,0.00
2013-1-25,16.6,6.6,-7.1,4.2,-4.8,-12.4,78,60,37,30.40,30.15,3,1,8,0.00
2013-1-26,17.0,8.8,-1.8,4.6,-1.2,-7.0,83,65,39,30.32,30.11,5,1,15,0.00
2013-1-27,22.6,10.7,1.9,4.5,-1.3,-4.6,77,60,32,30.54,30.31,5,1,10,0.00
2013-1-28,21.0,12.7,1.1,17.2,6.8,-4.3,86,77,53,30.54,30.09,1,0,6,0.23
2013-1-29,32.8,26.1,20.1,30.5,22.0,16.1,92,84,78,30.24,30.10,2,0,7,0.00
2013-1-30,42.3,36.9,32.8,40.7,34.9,30.5,94,93,91,30.12,29.38,4,1,13,0.05
2013-1-31,49.7,35.5,23.3,47.5,28.5,12.5,94,77,48,29.53,28.86,9,4,18,0.62
2013-2-1,25.0,19.6,14.4,15.5,9.1,4.9,81,64,53,30.11,29.53,5,2,16,0.01
2013-2-2,21.8,15.5,4.6,14.9,8.2,0.3,85,73,54,30.23,30.08,2,0,7,0.00
2013-2-3,27.8,15.3,6.4,15.5,9.7,2.3,86,79,55,30.09,29.78,3,0,6,0.00
2013-2-4,24.8,17.6,9.1,12.9,5.5,-0.6,88,61,33,29.94,29.75,7,2,25,0.00
2013-2-5,26.2,13.0,-0.3,13.1,3.5,-5.0,81,67,39,30.07,29.93,2,0,6,0.00
2013-2-6,32.2,23.0,9.8,21.5,13.1,-2.2,86,66,46,30.36,29.94,5,1,15,0.00
2013-2-7,23.0,13.4,6.2,4.2,-1.1,-4.9,71,53,38,30.59,30.36,3,1,9,0.00
2013-2-8,22.8,19.6,17.4,18.5,13.5,1.7,88,78,49,30.51,29.90,4,1,11,0.58
2013-2-9,19.5,13.1,2.1,15.0,5.8,-5.0,92,73,60,30.37,29.89,7,3,18,0.13
2013-2-10,31.5,8.8,-9.6,10.5,-0.3,-14.6,92,68,32,30.54,30.37,3,0,7,0.00
2013-2-11,32.9,25.6,9.5,30.6,21.0,4.0,95,83,61,30.40,29.65,2,0,6,0.06
2013-2-12,37.7,34.4,29.6,31.2,27.5,22.3,92,76,66,29.87,29.64,5,2,18,0.00
2013-2-13,37.6,28.6,21.3,24.6,20.5,16.6,92,72,49,29.87,29.77,3,0,7,0.00
2013-2-14,37.6,27.6,22.2,24.2,20.5,17.3,85,75,53,30.00,29.76,2,0,6,0.00
2013-2-15,47.4,32.2,23.9,30.9,24.1,18.5,84,73,46,29.98,29.90,4,1,12,0.00
2013-2-16,34.2,27.5,19.0,24.9,17.1,4.2,88,66,47,30.01,29.87,3,1,10,0.00
2013-2-17,18.8,14.5,10.4,6.3,3.6,1.3,73,62,54,29.88,29.58,15,3,19,0.00
2013-2-18,26.9,14.7,8.1,3.5,-0.0,-3.4,73,54,29,30.19,29.80,21,3,21,0.00
2013-2-19,37.9,25.1,7.7,32.0,15.9,-0.6,91,69,42,30.22,29.62,11,0,11,0.15
2013-2-20,34.4,26.5,20.8,31.8,19.8,12.7,90,76,59,29.77,29.59,18,2,18,0.05
2013-2-21,23.8,19.4,13.9,17.9,12.4,8.1,86,74,60,30.37,29.77,17,2,17,0.01
2013-2-22,37.4,27.8,14.1,23.5,19.8,10.2,88,73,50,30.47,30.30,11,1,11,0.00
2013-2-23,33.1,31.4,28.2,29.7,26.5,21.6,91,82,71,30.31,29.97,12,0,12,0.19
2013-2-24,37.4,33.2,29.9,33.0,29.9,27.1,95,88,81,29.97,29.79,7,0,7,0.08
2013-2-25,37.0,31.6,23.8,31.2,27.8,20.6,92,86,75,30.27,29.95,9,0,9,0.00
2013-2-26,39.1,33.4,28.0,31.9,29.1,25.4,91,84,73,30.36,30.18,8,0,8,0.00
2013-2-27,35.1,33.1,31.1,31.8,29.5,26.6,90,87,78,30.19,29.67,17,2,17,0.28
2013-2-28,42.2,35.8,30.9,34.5,31.5,28.1,95,85,72,29.68,29.58,5,0,5,0.00
2013-3-1,37.3,33.1,30.9,31.9,27.4,25.2,91,80,66,29.75,29.59,16,2,16,0.00
2013-3-2,34.9,30.4,24.8,27.4,25.0,20.8,86,80,67,29.75,29.70,14,2,14,0.01
2013-3-3,34.2,28.0,23.5,26.1,22.3,19.4,92,79,71,29.73,29.65,12,1,12,0.02
2013-3-4,32.0,27.4,24.7,23.9,20.9,19.3,84,76,66,29.89,29.67,16,2,16,0.00
2013-3-5,42.0,31.4,26.3,29.2,24.3,20.1,88,75,57,30.13,29.89,9,1,9,0.00
2013-3-6,38.2,33.8,29.1,29.6,26.6,22.0,88,75,61,30.23,30.12,18,2,18,0.00
2013-3-7,38.2,33.0,29.9,27.9,24.3,21.4,84,70,60,30.21,30.13,11,1,11,0.01
2013-3-8,42.9,31.4,23.4,26.8,23.8,18.9,92,74,45,30.31,30.11,15,1,15,0.08
2013-3-9,52.8,31.9,16.4,28.5,21.0,13.2,90,68,32,30.39,30.29,9,1,9,0.00
2013-3-10,50.6,34.8,21.0,30.8,24.9,17.3,88,69,39,30.41,30.24,7,1,16,0.00
2013-3-11,42.4,38.3,34.4,35.7,31.8,30.0,86,78,65,30.28,30.08,13,1,13,0.00
2013-3-12,44.7,40.2,38.0,42.8,38.0,33.8,94,92,84,30.08,29.71,15,1,15,1.12
2013-3-13,41.9,36.3,27.1,36.9,30.6,24.6,93,81,58,29.83,29.75,9,1,9,0.00
2013-3-14,31.7,25.3,16.5,26.2,16.4,7.7,91,69,50,29.90,29.74,18,2,18,0.00
2013-3-15,34.5,24.4,13.7,27.0,13.7,4.9,88,65,38,29.92,29.63,12,1,12,0.06
2013-3-16,31.0,24.9,17.8,21.7,14.4,10.4,92,65,45,29.93,29.75,12,1,12,0.00
2013-3-17,28.2,18.9,8.6,13.9,7.4,1.8,87,63,40,30.39,29.93,18,2,18,0.00
2013-3-18,34.2,20.7,3.5,20.4,6.9,-1.0,83,58,30,30.50,30.24,10,0,10,0.00
2013-3-19,31.0,27.9,26.0,27.3,24.3,21.0,89,86,76,30.24,29.76,12,1,12,0.70
2013-3-20,33.9,27.1,18.0,26.3,20.9,12.0,89,78,65,29.78,29.69,17,1,17,0.01
2013-3-21,37.4,23.7,10.0,18.6,13.3,6.4,92,67,38,29.80,29.65,12,1,12,0.00
2013-3-22,36.2,23.9,8.3,25.0,16.0,4.5,87,73,46,29.78,29.67,13,1,16,0.00
2013-3-23,36.9,29.9,22.0,24.6,20.8,16.3,87,69,49,29.82,29.68,20,2,20,0.00
2013-3-24,39.2,32.8,21.7,25.5,23.2,17.3,85,68,54,29.89,29.81,13,2,13,0.00
2013-3-25,44.4,31.1,17.2,29.1,22.7,14.2,90,73,46,29.84,29.59,11,0,11,0.00
2013-3-26,45.0,35.9,25.7,29.4,25.1,20.8,86,67,40,29.83,29.63,13,1,13,0.00
2013-3-27,46.1,34.4,21.2,31.7,25.1,17.8,88,71,47,29.95,29.81,14,1,14,0.00
2013-3-28,48.2,37.9,32.8,33.9,31.1,28.3,96,77,51,30.07,29.94,11,1,11,0.00
2013-3-29,47.4,38.1,32.4,34.8,31.6,28.8,90,78,54,30.10,30.03,17,1,17,0.00
2013-3-30,49.9,36.8,25.8,31.2,24.4,18.7,91,66,30,30.14,30.07,16,1,16,0.00
2013-3-31,52.4,38.1,22.3,35.5,25.5,18.2,90,64,35,30.15,29.78,15,1,15,0.07
2013-4-1,46.9,36.9,28.6,39.9,29.7,11.7,92,77,44,29.79,29.54,21,2,21,0.35
2013-4-2,33.1,28.1,23.9,15.9,12.1,9.4,58,51,41,29.91,29.78,19,3,19,0.00
2013-4-3,39.4,30.9,23.2,17.7,12.9,10.0,64,48,31,30.19,29.90,22,3,22,0.00
2013-4-4,49.8,36.0,22.0,26.3,18.2,11.6,76,51,29,30.30,29.98,12,1,12,0.00
2013-4-5,49.9,38.2,29.9,29.3,25.7,17.3,82,62,38,29.98,29.75,20,2,20,0.00
2013-4-6,39.9,29.9,22.6,20.0,12.7,7.2,73,50,27,30.35,29.94,17,3,19,0.00
2013-4-7,54.8,40.1,28.7,34.3,25.7,15.3,80,57,37,30.33,29.92,17,2,17,0.00
2013-4-8,57.2,43.8,34.7,35.1,32.9,30.1,89,67,37,30.14,29.94,12,1,12,0.00
2013-4-9,56.9,45.8,38.7,45.3,39.6,32.7,93,80,54,30.06,29.89,11,1,11,0.26
2013-4-10,49.4,44.1,40.1,44.8,41.2,38.0,93,90,81,30.01,29.91,6,0,6,0.44
2013-4-11,42.3,39.9,36.5,40.2,28.2,17.9,97,65,39,30.20,29.91,13,1,13,0.00
2013-4-12,36.5,32.3,29.9,30.6,27.2,18.8,91,82,49,30.20,29.89,17,1,17,0.52
2013-4-13,51.7,38.8,32.7,37.5,33.4,30.1,91,82,52,29.95,29.81,9,0,9,0.02
2013-4-14,47.8,38.3,29.4,37.0,32.0,26.6,92,79,55,30.27,29.92,14,1,14,0.00
2013-4-15,59.0,41.6,26.4,38.6,31.3,23.6,91,70,40,30.40,30.26,12,1,12,0.00
2013-4-16,59.4,48.8,38.3,51.5,41.4,32.3,92,76,56,30.35,29.99,12,1,12,0.04
2013-4-17,56.7,46.8,33.6,47.4,33.8,27.8,93,63,37,30.38,30.05,15,2,15,0.00
2013-4-18,62.5,45.6,29.4,42.9,32.2,25.7,87,62,42,30.44,30.06,19,2,19,0.01
2013-4-19,73.2,59.7,48.8,59.0,52.2,39.2,89,77,54,30.06,29.50,19,2,19,0.20
2013-4-20,51.0,43.6,34.8,46.1,31.9,18.5,90,65,41,30.26,29.64,24,3,24,0.10
2013-4-21,48.4,36.8,27.7,24.6,19.5,16.4,76,51,30,30.73,30.25,14,2,14,0.00
2013-4-22,55.7,38.9,23.4,29.3,22.7,18.5,83,56,30,30.79,30.60,16,1,16,0.00
2013-4-23,42.6,36.9,27.6,35.3,30.9,24.1,89,79,67,30.62,30.21,14,1,14,0.00
2013-4-24,76.1,55.1,38.6,48.2,41.9,34.7,92,65,33,30.21,29.70,7,1,16,0.00
2013-4-25,57.7,47.9,33.7,47.6,32.9,25.6,75,57,35,30.31,29.70,21,2,21,0.00
2013-4-26,56.4,42.9,27.8,36.4,30.4,23.9,87,64,39,30.47,30.31,12,1,12,0.00
2013-4-27,64.8,46.7,30.5,39.1,31.5,25.5,90,61,27,30.47,30.31,12,1,12,0.00
2013-4-28,71.1,51.1,29.5,40.0,33.8,26.0,88,57,25,30.36,30.15,16,1,16,0.00
2013-4-29,66.5,55.1,43.4,43.4,38.9,34.5,78,56,37,30.24,30.15,13,1,13,0.00
2013-4-30,72.6,59.2,49.2,47.3,39.2,30.2,67,49,34,30.33,30.23,12,1,12,0.00
2013-5-1,77.3,57.9,38.7,42.1,36.0,30.1,78,49,19,30.46,30.33,14,1,14,0.00
2013-5-2,81.0,59.3,42.4,49.5,40.3,30.3,81,53,27,30.47,30.31,11,1,11,0.00
2013-5-3,69.6,53.0,36.2,45.2,38.7,29.3,85,61,37,30.54,30.36,13,1,13,0.00
2013-5-4,76.3,57.0,38.7,47.6,40.9,35.5,92,60,28,30.39,30.21,13,1,13,0.00
2013-5-5,75.8,55.7,37.4,45.0,37.8,32.1,85,55,26,30.31,30.16,12,1,12,0.00
2013-5-6,77.1,56.6,39.8,46.0,35.6,23.5,86,53,15,30.24,30.08,12,1,12,0.00
2013-5-7,81.4,61.4,41.5,50.6,42.5,34.3,87,55,21,30.16,30.04,9,1,9,0.00
2013-5-8,74.3,60.5,48.2,61.3,54.4,45.9,93,82,50,30.19,30.05,11,1,11,0.38
2013-5-9,68.8,60.0,53.2,58.2,56.0,51.1,94,87,64,30.04,29.88,9,0,9,0.10
2013-5-10,73.3,61.1,50.8,61.5,54.9,48.8,94,82,54,29.98,29.86,11,0,11,0.00
2013-5-11,64.8,59.5,55.8,61.8,57.2,53.8,93,92,88,29.86,29.64,7,0,7,0.66
2013-5-12,62.3,53.0,38.6,53.8,43.3,27.2,94,71,39,29.79,29.61,17,1,17,0.00
2013-5-13,49.4,42.7,36.9,34.3,31.0,26.9,84,64,52,30.07,29.79,17,1,17,0.00
2013-5-14,54.6,43.0,30.2,36.0,31.1,27.3,92,66,37,30.11,30.00,15,1,15,0.00
2013-5-15,63.1,44.7,28.0,47.9,37.1,25.4,92,78,37,30.08,29.67,20,1,20,0.16
2013-5-16,74.5,56.3,39.8,52.0,41.6,37.3,94,64,28,29.86,29.63,18,2,18,0.00
2013-5-17,65.8,53.0,41.9,42.6,39.6,37.1,86,62,37,30.25,29.86,18,2,18,0.00
2013-5-18,72.5,53.5,34.0,49.0,39.7,31.6,93,65,30,30.33,30.22,11,1,11,0.00
2013-5-19,68.5,54.8,42.4,54.2,48.2,40.0,92,80,51,30.33,30.17,13,1,13,0.27
2013-5-20,67.8,59.8,53.7,62.6,56.6,51.4,93,90,77,30.17,29.98,6,0,6,0.03
2013-5-21,80.9,63.5,51.7,67.8,58.4,49.5,94,85,54,30.10,29.85,12,1,12,0.56
2013-5-22,71.8,58.8,50.6,65.5,55.7,48.4,93,90,78,29.93,29.84,10,1,10,0.23
2013-5-23,74.2,64.8,56.5,68.7,61.5,54.5,94,89,78,29.87,29.74,13,0,13,0.01
2013-5-24,63.9,53.1,43.9,61.5,50.0,40.8,94,89,83,29.95,29.63,19,2,19,0.59
2013-5-25,43.9,40.9,34.1,41.5,38.2,31.6,92,90,87,29.94,29.86,16,2,16,0.80
2013-5-26,51.7,42.8,35.1,41.8,37.5,32.9,93,82,66,30.11,29.82,21,2,21,0.19
2013-5-27,66.5,48.7,31.4,45.0,36.6,29.3,93,68,33,30.22,30.10,17,1,17,0.01
2013-5-28,71.5,53.8,35.0,51.7,41.6,32.8,93,68,31,30.28,30.14,15,1,15,0.00
2013-5-29,60.3,56.1,52.1,58.3,53.2,46.5,94,90,77,30.17,29.99,7,0,7,0.17
2013-5-30,84.0,68.5,54.9,66.3,60.6,53.2,94,78,49,30.10,30.01,13,1,13,0.00
2013-5-31,89.6,72.1,56.8,69.3,62.2,54.8,94,74,39,30.11,29.92,15,1,15,0.00
2013-6-1,89.5,73.6,61.1,70.5,64.3,59.1,95,76,40,29.95,29.81,14,1,14,0.00
2013-6-2,87.0,69.9,61.3,76.7,65.2,59.1,93,86,53,29.83,29.63,23,0,23,0.63
2013-6-3,73.7,63.8,50.4,63.0,55.6,43.4,94,77,48,29.85,29.77,16,1,16,0.00
2013-6-4,65.1,53.6,40.8,50.3,43.2,38.3,92,69,47,30.13,29.85,17,1,17,0.00
2013-6-5,71.3,55.7,40.3,50.4,43.8,37.9,93,68,34,30.23,30.11,13,1,13,0.00
2013-6-6,72.0,59.3,48.3,56.3,49.6,43.6,91,72,42,30.20,30.08,11,1,11,0.07
2013-6-7,55.9,52.0,50.7,53.5,49.5,47.3,93,91,87,30.10,29.91,10,0,10,0.57
2013-6-8,66.9,58.1,51.0,58.9,53.8,48.9,94,86,73,30.04,29.76,12,1,12,0.32
2013-6-9,74.5,62.4,52.5,57.4,53.8,49.6,93,76,46,30.20,30.03,15,1,15,0.00
2013-6-10,69.8,58.3,46.9,60.3,53.6,44.7,95,85,61,30.24,30.01,9,0,9,0.20
2013-6-11,56.9,55.5,53.6,54.4,53.1,51.0,93,92,89,30.01,29.60,13,0,13,0.99
2013-6-12,64.1,56.3,49.4,54.7,51.8,47.2,93,85,67,29.87,29.61,20,2,20,0.04
2013-6-13,63.2,55.5,47.4,57.5,52.2,45.5,94,89,74,29.85,29.73,5,0,5,0.12
2013-6-14,76.0,61.5,53.1,59.4,52.8,46.3,94,76,37,29.84,29.71,13,1,13,0.00
2013-6-15,74.0,59.2,43.6,52.4,46.3,41.1,93,67,36,29.97,29.84,14,1,14,0.00
2013-6-16,69.8,57.6,45.8,59.4,52.5,43.3,93,84,59,29.95,29.72,13,0,13,0.06
2013-6-17,75.3,62.2,51.7,63.4,56.8,49.7,94,84,53,29.94,29.80,14,0,14,0.04
2013-6-18,63.4,57.1,49.5,56.5,53.1,47.3,93,87,69,30.02,29.92,6,0,6,0.10
2013-6-19,70.3,56.6,42.7,50.3,45.5,40.5,98,70,39,30.21,29.99,14,1,14,0.01
2013-6-20,76.2,57.7,40.1,55.1,46.7,37.8,93,70,33,30.30,30.20,8,0,8,0.00
2013-6-21,81.1,63.5,46.2,58.8,51.9,43.9,93,70,38,30.27,30.21,10,1,10,0.00
2013-6-22,83.2,66.6,53.7,67.9,59.5,51.1,92,79,51,30.24,30.10,11,0,11,0.05
2013-6-23,83.6,69.5,62.6,75.6,65.8,60.4,94,88,65,30.14,29.96,14,0,14,0.21
2013-6-24,87.3,71.1,61.9,72.0,65.5,60.2,94,84,54,30.01,29.90,10,0,10,0.40
2013-6-25,85.5,70.8,62.2,72.4,66.0,60.1,94,86,53,29.96,29.75,11,0,11,0.45
2013-6-26,73.2,66.9,63.3,68.8,64.4,61.2,94,92,78,29.84,29.75,9,0,9,0.49
2013-6-27,79.2,68.8,62.1,71.0,65.1,60.4,94,88,73,29.84,29.74,10,0,10,0.00
2013-6-28,78.1,66.1,59.4,70.4,62.7,57.1,93,89,71,29.74,29.45,14,1,14,0.87
2013-6-29,80.5,70.0,64.8,72.0,65.6,62.2,94,86,56,29.68,29.50,10,0,10,0.04
2013-6-30,83.8,70.7,60.6,70.9,64.9,58.6,94,83,59,29.93,29.68,7,0,7,0.00
2013-7-1,76.7,69.0,63.7,69.9,65.6,61.6,94,89,75,30.07,29.93,7,0,7,0.85
2013-7-2,77.6,67.0,62.0,73.9,64.4,60.0,96,92,80,30.18,30.06,11,0,11,1.12
2013-7-3,85.0,71.5,62.9,74.7,67.1,60.8,94,87,60,30.18,30.10,9,0,9,0.26
2013-7-4,89.0,75.3,65.7,75.9,69.3,63.7,94,83,53,30.20,30.05,10,0,10,0.32
2013-7-5,89.2,74.3,65.8,76.5,69.3,64.0,95,86,54,30.15,30.04,13,0,13,0.66
2013-7-6,83.6,73.4,64.3,71.3,67.1,61.8,94,82,57,30.08,30.00,11,1,12,0.03
2013-7-7,83.7,71.4,62.2,72.6,66.7,60.2,94,86,62,30.05,29.92,4,0,4,0.05
2013-7-8,80.6,71.9,67.9,72.4,68.8,65.8,94,90,70,30.05,29.93,5,0,5,0.55
2013-7-9,81.7,71.4,65.8,72.3,67.1,63.6,94,87,67,30.10,30.02,11,0,11,0.01
2013-7-10,76.6,70.4,67.4,72.1,67.8,65.0,94,92,82,30.05,29.76,11,0,11,0.29
2013-7-11,79.5,70.6,59.8,70.6,64.5,57.3,95,82,55,30.02,29.75,12,1,12,0.01
2013-7-12,79.1,66.3,55.3,67.0,59.7,53.3,94,81,52,30.23,30.01,6,0,6,0.00
2013-7-13,76.5,67.7,57.7,68.2,62.2,55.7,94,83,60,30.32,30.23,6,0,6,0.00
2013-7-14,85.3,73.1,65.8,72.6,67.5,63.7,94,84,58,30.33,30.22,6,0,6,0.00
2013-7-15,89.2,74.9,64.9,72.1,66.6,62.8,94,78,47,30.24,30.13,11,1,11,0.00
2013-7-16,86.8,73.8,62.5,71.7,65.8,60.3,94,78,53,30.22,30.16,12,1,12,0.00
2013-7-17,89.9,75.4,62.0,75.1,68.1,60.0,94,80,49,30.21,29.98,7,0,7,0.01
2013-7-18,87.7,74.6,67.2,75.7,69.4,65.1,94,85,59,30.04,29.94,10,0,10,0.11
2013-7-19,90.5,77.1,67.1,76.4,70.3,65.1,94,81,57,29.95,29.67,18,1,18,0.13
2013-7-20,80.7,71.2,63.3,72.0,66.5,61.2,95,86,65,29.82,29.65,12,0,12,0.19
2013-7-21,79.6,67.1,58.6,64.7,60.1,56.6,94,80,51,30.03,29.82,9,0,9,0.00
2013-7-22,79.7,66.5,54.4,68.9,61.3,52.4,93,84,66,30.06,29.89,10,0,10,0.00
2013-7-23,76.3,66.8,63.5,69.5,63.9,61.1,94,91,76,29.89,29.57,6,0,6,1.38
2013-7-24,72.9,63.6,50.6,67.1,57.9,46.2,94,82,64,30.06,29.60,17,1,17,0.00
2013-7-25,72.0,58.1,44.0,60.6,51.3,41.8,93,79,55,30.15,30.05,7,0,7,0.00
2013-7-26,73.0,61.7,56.0,63.6,57.1,53.7,93,85,64,30.14,30.02,11,0,11,0.00
2013-7-27,81.2,64.9,50.9,67.8,58.3,48.9,94,81,49,30.10,29.98,7,0,7,0.01
2013-7-28,77.3,67.8,59.9,68.4,63.5,57.8,96,86,67,30.03,29.95,10,0,10,0.27
2013-7-29,78.8,69.0,56.9,68.1,62.3,54.0,94,81,50,30.09,29.97,18,0,18,0.01
2013-7-30,75.5,63.8,54.1,60.2,55.5,51.8,94,77,49,30.14,30.07,13,1,13,0.00
2013-7-31,79.1,64.2,51.5,62.6,55.9,49.5,94,77,44,30.17,30.04,7,0,7,0.00
2013-8-1,78.7,63.9,53.1,66.1,59.4,51.1,94,86,55,30.07,29.86,12,1,16,0.28
2013-8-2,78.4,67.5,57.3,64.5,59.2,53.2,94,77,46,29.86,29.79,13,1,13,0.01
2013-8-3,75.0,63.6,55.1,61.6,56.1,52.8,94,78,48,29.87,29.79,17,1,17,0.26
2013-8-4,70.6,59.8,51.4,60.2,53.7,49.1,94,81,57,29.95,29.83,13,1,13,0.10
2013-8-5,70.1,58.1,47.8,51.3,46.5,37.2,93,69,32,30.09,29.95,17,2,17,0.01
2013-8-6,75.0,58.3,43.6,60.6,50.3,41.4,93,77,45,30.17,30.09,7,0,7,0.00
2013-8-7,77.3,64.3,52.7,62.2,56.5,50.3,93,78,52,30.19,30.07,14,1,14,0.00
2013-8-8,80.5,70.5,64.5,70.8,65.1,58.6,93,83,67,30.07,29.97,11,1,11,0.00
2013-8-9,74.2,69.7,66.9,70.7,67.6,64.9,94,93,87,29.98,29.76,10,0,10,1.05
2013-8-10,74.2,65.2,51.3,65.1,56.2,48.8,94,75,43,30.05,29.80,16,1,16,0.00
2013-8-11,75.0,59.6,46.4,60.0,51.9,44.4,94,78,44,30.12,30.02,15,0,15,0.01
2013-8-12,77.3,63.5,50.7,61.6,55.7,48.7,94,78,48,30.06,29.93,8,0,8,0.00
2013-8-13,66.6,61.6,58.3,63.7,59.3,55.7,94,92,89,29.94,29.71,11,0,11,0.41
2013-8-14,66.7,58.8,49.2,59.2,52.7,46.7,94,81,62,29.99,29.70,15,1,15,0.01
2013-8-15,71.4,57.1,45.1,57.9,49.8,43.1,94,79,50,30.14,29.99,11,1,11,0.00
2013-8-16,76.6,59.5,45.3,59.7,52.2,43.4,94,79,48,30.25,30.13,11,0,11,0.00
2013-8-17,77.4,61.8,51.4,60.0,54.7,49.3,94,80,47,30.32,30.25,10,0,10,0.01
2013-8-18,76.3,61.8,51.4,65.4,56.2,49.3,94,83,59,30.32,30.12,5,0,5,0.00
2013-8-19,79.7,64.7,52.4,63.1,57.2,50.4,94,79,47,30.12,29.98,12,0,12,0.00
2013-8-20,82.0,66.6,55.4,64.9,59.3,53.4,94,80,47,30.13,30.03,7,0,7,0.01
2013-8-21,83.0,68.6,56.3,68.1,61.4,54.3,94,80,48,30.18,30.03,12,0,12,0.00
2013-8-22,84.0,69.9,58.2,70.0,62.9,56.2,94,80,49,30.05,29.82,11,0,11,0.04
2013-8-23,73.0,63.2,48.7,63.5,55.2,46.1,94,77,49,30.21,29.87,13,1,13,0.00
2013-8-24,75.4,56.9,44.0,57.0,48.6,41.8,98,77,42,30.38,30.21,9,0,9,0.01
2013-8-25,77.5,59.9,44.1,59.7,52.2,41.9,94,78,41,30.42,30.18,9,0,9,0.03
2013-8-26,73.5,65.6,60.0,67.7,62.6,57.9,94,90,76,30.20,29.90,6,0,6,0.13
2013-8-27,82.2,70.5,63.5,72.2,65.8,61.5,94,86,61,29.92,29.86,7,0,7,0.00
2013-8-28,84.7,69.6,61.9,73.1,65.6,60.2,94,88,58,30.01,29.85,8,0,8,0.53
2013-8-29,74.9,65.3,58.4,66.5,61.7,56.4,94,89,69,30.09,29.98,11,0,11,0.01
2013-8-30,82.9,69.6,62.4,70.1,64.0,59.8,94,84,54,30.04,29.81,11,0,11,0.00
2013-8-31,74.7,69.2,65.3,71.7,66.9,63.5,94,92,87,29.82,29.76,6,0,6,0.30
2013-9-1,79.8,70.8,65.6,71.8,67.5,63.8,95,90,71,29.87,29.79,4,0,4,0.03
2013-9-2,77.3,69.9,64.4,71.5,67.3,62.3,94,92,79,29.86,29.69,9,0,9,0.93
2013-9-3,73.8,65.0,58.3,65.3,60.7,55.7,96,87,62,29.83,29.71,7,0,7,0.01
2013-9-4,74.0,63.8,54.6,61.7,56.8,52.6,94,79,57,29.93,29.83,15,1,15,0.00
2013-9-5,64.5,56.5,40.9,58.4,48.1,38.5,93,76,46,30.20,29.88,16,1,16,0.19
2013-9-6,66.7,50.0,37.3,51.8,42.1,35.5,94,77,43,30.30,30.11,10,0,10,0.00
2013-9-7,69.5,55.6,44.4,60.1,50.8,42.3,98,85,58,30.11,29.87,7,0,7,0.01
2013-9-8,61.1,54.1,40.9,53.7,46.6,38.3,93,77,50,30.14,29.80,15,1,15,0.05
2013-9-9,69.6,51.2,35.6,53.7,43.9,33.5,94,79,41,30.27,30.12,10,0,10,0.00
2013-9-10,69.9,59.7,49.4,65.8,57.3,47.2,94,92,85,30.15,30.03,5,0,5,0.24
2013-9-11,90.3,73.6,66.1,76.3,68.7,64.3,95,86,55,30.07,29.91,21,0,21,0.50
2013-9-12,80.5,68.7,64.3,72.8,65.8,62.3,94,91,74,29.98,29.65,7,0,7,0.57
2013-9-13,64.4,59.3,53.3,62.6,56.9,49.9,96,91,86,29.84,29.62,12,1,12,0.39
2013-9-14,61.2,54.0,47.5,53.9,49.3,45.3,93,85,67,30.11,29.83,13,1,13,0.02
2013-9-15,67.7,54.0,44.8,55.5,48.5,42.9,94,83,50,30.19,30.05,14,0,14,0.00
2013-9-16,57.3,50.8,36.3,52.9,45.9,33.6,94,84,61,30.34,30.04,14,1,14,0.04
2013-9-17,62.9,45.1,32.7,48.3,38.7,30.6,94,80,48,30.51,30.34,11,1,11,0.00
2013-9-18,70.8,50.1,36.2,54.2,43.6,34.3,94,81,45,30.38,30.17,5,0,5,0.00
2013-9-19,74.4,53.9,40.6,57.9,47.9,38.7,94,82,39,30.20,30.07,6,0,6,0.01
2013-9-20,77.0,56.9,44.0,60.7,51.2,42.1,94,83,48,30.15,29.99,14,0,14,0.00
2013-9-21,71.8,61.3,52.5,61.5,56.3,50.4,94,85,57,30.01,29.65,16,1,16,0.08
2013-9-22,63.7,56.4,47.1,61.6,51.2,41.2,94,83,66,29.89,29.57,15,1,15,0.49
2013-9-23,50.5,46.0,41.3,43.8,39.7,36.4,92,79,67,30.06,29.89,15,1,15,0.00
2013-9-24,61.6,51.0,45.0,46.0,41.6,38.1,88,71,48,30.05,29.91,17,1,17,0.00
2013-9-25,65.3,52.3,39.7,51.5,45.7,37.6,93,79,59,30.05,29.94,12,1,12,0.00
2013-9-26,65.2,50.8,38.4,51.0,44.6,36.1,93,81,58,30.20,30.04,13,0,13,0.00
2013-9-27,66.5,53.1,43.1,54.5,48.6,40.9,93,85,59,30.34,30.20,7,0,7,0.00
2013-9-28,72.7,53.9,43.9,58.9,49.2,41.7,94,85,54,30.41,30.30,6,0,6,0.01
2013-9-29,71.0,53.6,43.8,57.3,48.3,41.9,94,84,50,30.30,30.11,10,0,10,0.01
2013-9-30,70.8,52.3,41.1,56.8,47.4,39.2,96,85,53,30.15,30.00,7,0,7,0.01
2013-10-1,75.0,55.6,42.6,58.5,50.1,40.6,94,84,52,30.04,29.90,11,0,11,0.00
2013-10-2,74.6,58.7,46.9,61.0,53.1,45.0,94,83,58,30.00,29.85,14,0,14,0.01
2013-10-3,74.0,56.3,44.2,54.3,48.3,42.3,94,78,42,30.12,29.99,7,0,7,0.01
2013-10-4,67.0,53.4,41.3,56.0,48.7,39.4,94,85,61,30.15,30.07,5,0,5,0.00
2013-10-5,62.2,57.3,54.2,54.3,52.7,50.4,91,85,70,30.16,30.09,4,0,4,0.01
2013-10-6,55.7,51.0,47.6,53.1,47.0,41.8,93,86,66,30.24,30.15,16,0,16,0.18
2013-10-7,65.4,56.0,49.9,63.6,54.0,46.2,94,93,75,30.15,29.68,13,0,13,0.13
2013-10-8,59.4,48.7,35.2,47.4,40.4,32.8,93,76,44,30.44,29.93,13,1,13,0.00
2013-10-9,62.5,43.0,31.4,46.4,36.9,29.3,94,82,45,30.54,30.42,5,0,9,0.01
2013-10-10,63.9,45.9,33.9,50.4,40.7,32.1,94,84,49,30.42,30.25,6,0,6,0.00
2013-10-11,71.2,50.7,41.6,52.0,44.3,39.7,93,81,42,30.25,30.16,4,0,4,0.01
2013-10-12,59.9,48.7,36.9,53.0,45.0,35.1,94,87,76,30.43,30.24,10,0,10,0.00
2013-10-13,64.5,50.0,40.2,50.1,44.4,38.3,94,82,57,30.47,30.38,14,1,14,0.00
2013-10-14,61.5,52.6,42.9,53.5,48.3,40.6,94,86,69,30.40,30.26,7,0,7,0.01
2013-10-15,62.9,56.5,51.5,54.9,52.3,49.3,93,86,72,30.30,30.17,6,0,6,0.00
2013-10-16,63.7,54.2,47.9,52.8,49.7,46.0,94,85,65,30.17,29.88,10,0,10,0.00
2013-10-17,66.3,55.1,48.4,53.5,48.4,44.6,94,80,50,29.89,29.72,10,0,10,0.00
2013-10-18,60.1,51.6,39.9,51.5,46.1,36.6,94,83,60,29.93,29.61,24,1,24,0.00
2013-10-19,63.1,48.3,36.2,48.4,41.7,34.3,94,79,53,29.97,29.72,9,0,9,0.00
2013-10-20,55.4,47.6,35.9,46.0,38.2,32.7,93,72,45,30.03,29.67,16,1,16,0.00
2013-10-21,63.0,45.8,31.6,45.9,38.6,29.5,94,78,44,30.12,29.95,8,0,8,0.00
2013-10-22,54.7,46.2,33.1,47.6,40.7,30.2,90,82,63,29.95,29.72,13,0,13,0.00
2013-10-23,51.7,39.4,31.3,36.6,32.6,28.8,92,78,47,29.81,29.63,9,0,9,0.00
2013-10-24,47.3,38.4,29.3,34.9,31.5,27.0,92,77,54,29.91,29.69,18,1,18,0.00
2013-10-25,45.0,35.9,30.2,31.9,29.0,25.7,93,78,49,30.16,29.91,16,1,16,0.00
2013-10-26,46.9,38.8,27.9,35.5,30.3,25.1,92,73,46,30.17,29.86,13,0,13,0.00
2013-10-27,50.8,40.4,29.4,37.0,32.0,26.3,89,73,49,30.07,29.80,16,1,16,0.00
2013-10-28,48.5,36.6,24.2,36.5,29.5,20.5,96,76,56,30.41,30.06,16,1,16,0.00
2013-10-29,44.2,28.3,18.3,26.5,21.3,15.5,91,77,42,30.51,30.41,10,0,10,0.00
2013-10-30,45.8,33.6,25.3,34.4,28.1,21.2,92,81,64,30.41,30.24,8,0,8,0.00
2013-10-31,54.0,41.4,30.0,52.3,39.5,28.0,98,93,91,30.29,29.72,13,0,13,0.00
2013-11-1,65.5,57.7,44.0,59.0,51.3,40.1,94,81,50,29.72,29.32,19,1,19,0.00
2013-11-2,56.9,46.3,37.9,45.9,40.4,32.3,94,81,59,29.86,29.62,14,1,14,0.00
2013-11-3,39.0,32.6,22.9,32.8,21.6,13.8,82,65,40,30.51,29.86,14,2,14,0.00
2013-11-4,38.6,25.6,16.3,22.1,18.1,13.4,89,75,45,30.75,30.51,10,0,10,0.00
2013-11-5,46.3,32.6,21.3,32.0,25.2,17.8,87,75,50,30.75,30.51,12,0,12,0.00
2013-11-6,57.4,44.6,32.6,44.3,38.1,29.0,90,78,61,30.52,29.97,12,0,12,0.00
2013-11-7,52.6,45.6,34.4,50.6,41.2,24.1,93,85,64,29.97,29.72,13,1,13,0.00
2013-11-8,38.2,32.5,25.0,32.8,25.6,20.8,89,76,57,30.11,29.85,22,1,22,0.00
2013-11-9,40.6,35.0,31.3,31.0,24.5,20.8,90,66,50,30.21,30.00,12,1,12,0.01
2013-11-10,42.1,36.5,32.9,39.5,34.0,30.8,93,90,84,30.00,29.75,14,0,14,0.30
2013-11-11,43.4,37.1,33.0,34.5,30.2,26.4,91,76,55,30.11,29.88,14,1,14,0.00
2013-11-12,40.5,28.5,24.8,35.0,20.6,15.7,89,72,61,30.26,29.88,14,3,14,0.02
2013-11-13,30.5,24.1,18.6,21.8,14.8,10.0,84,68,45,30.34,30.12,15,2,15,0.00
2013-11-14,43.6,31.9,25.1,29.7,25.0,20.5,88,76,56,30.12,30.07,14,1,14,0.01
2013-11-15,51.7,33.7,26.0,33.0,26.4,22.4,88,76,36,30.24,30.12,4,0,4,0.01
2013-11-16,56.5,38.9,32.1,34.7,29.8,26.3,85,72,36,30.34,30.22,5,0,5,0.00
2013-11-17,47.6,40.8,30.1,45.8,37.7,26.9,94,89,77,30.33,29.81,10,0,10,0.24
2013-11-18,57.2,49.3,38.7,55.2,41.7,30.6,94,77,51,29.81,29.46,16,2,16,0.31
2013-11-19,42.4,32.3,27.4,32.3,20.8,16.0,76,62,56,30.37,29.65,22,3,22,0.01
2013-11-20,36.4,26.0,18.5,21.7,17.3,15.0,86,70,42,30.70,30.37,14,1,14,0.00
2013-11-21,41.8,26.6,14.5,25.2,18.7,11.3,89,74,37,30.71,30.40,5,0,5,0.00
2013-11-22,38.3,35.0,29.4,36.2,32.0,23.4,93,89,74,30.40,29.83,4,0,4,0.12
2013-11-23,39.4,31.2,22.1,37.5,24.5,12.2,93,77,52,29.97,29.78,16,2,16,0.06
2013-11-24,22.1,17.0,13.1,14.6,5.0,-3.3,76,59,46,30.27,29.82,23,4,23,0.00
2013-11-25,27.5,18.2,8.5,19.0,5.6,-4.8,79,59,35,30.43,30.24,11,1,11,0.00
2013-11-26,32.5,29.2,25.5,29.1,24.8,16.5,92,84,67,30.33,30.08,6,0,6,0.00
2013-11-27,38.3,34.7,31.1,36.5,32.6,27.8,93,92,87,30.08,29.34,11,1,11,0.29
2013-11-28,31.2,20.7,8.2,28.0,13.4,4.5,88,74,56,30.47,29.49,15,2,15,0.00
2013-11-29,25.5,11.3,2.4,11.7,5.1,-1.6,86,77,48,30.84,30.47,11,0,11,0.00
2013-11-30,26.0,15.0,0.3,17.3,7.6,-3.9,86,73,50,30.88,30.44,10,1,10,0.00
2013-12-1,36.6,29.9,24.3,30.9,25.5,16.5,92,84,71,30.44,30.09,6,0,6,0.02
2013-12-2,36.7,32.3,28.5,32.6,29.9,26.2,92,91,84,30.09,29.94,3,0,3,0.03
2013-12-3,34.4,32.3,30.2,32.0,30.4,28.2,93,92,90,30.01,29.94,7,0,7,0.03
2013-12-4,39.7,29.8,22.7,29.4,24.8,19.8,91,82,62,30.23,30.00,10,0,10,0.01
2013-12-5,40.4,34.2,24.8,38.8,31.7,22.4,94,90,84,30.23,29.91,5,1,5,0.03
2013-12-6,42.4,37.2,32.5,40.8,34.6,27.9,94,90,77,30.17,29.91,7,0,7,0.32
2013-12-7,32.8,28.8,21.0,28.7,20.8,15.2,88,73,55,30.48,30.12,18,1,18,0.00
2013-12-8,26.9,23.6,19.3,19.6,14.1,11.7,92,67,55,30.62,30.47,6,0,6,0.00
2013-12-9,33.8,26.7,22.4,30.4,22.2,13.4,92,83,63,30.52,29.90,13,0,13,0.00
2013-12-10,34.4,29.5,21.3,29.8,19.4,9.5,85,66,54,29.96,29.78,16,2,16,0.00
2013-12-11,27.4,22.5,16.9,17.5,13.3,9.5,86,68,53,30.18,29.96,17,1,17,0.00
2013-12-12,18.4,9.9,0.2,12.3,2.7,-4.3,85,73,44,30.33,30.03,13,1,13,0.00
2013-12-13,18.5,11.7,-2.5,14.6,6.1,-7.8,92,78,70,30.49,29.96,12,1,12,0.00
2013-12-14,10.8,3.3,-6.5,6.8,-3.5,-11.1,84,74,54,30.68,30.27,5,0,5,0.00
2013-12-15,23.5,18.8,10.5,21.0,15.4,6.6,92,86,80,30.27,29.57,19,1,19,0.00
2013-12-16,19.5,13.2,-6.5,15.4,5.0,-11.6,88,70,52,30.27,29.73,18,2,18,0.00
2013-12-17,10.5,-0.6,-14.6,6.6,-5.4,-20.0,85,80,73,30.34,30.11,5,0,5,0.00
2013-12-18,26.2,15.0,1.6,19.7,10.7,-2.9,89,83,69,30.11,29.98,6,0,6,0.00
2013-12-19,35.9,29.6,22.2,29.6,24.2,19.2,90,80,63,30.11,29.96,13,1,13,0.00
2013-12-20,38.2,34.6,32.4,33.5,31.1,28.9,93,87,73,30.12,29.92,12,0,12,0.25
2013-12-21,42.7,37.3,35.0,37.9,34.9,33.1,93,91,82,29.93,29.85,7,0,7,0.60
2013-12-22,41.6,36.8,34.2,40.0,35.2,32.4,94,94,93,29.99,29.69,9,2,9,0.19
2013-12-23,37.0,34.7,31.9,35.4,32.9,24.8,94,93,74,30.17,29.98,12,1,12,0.05
2013-12-24,31.8,23.8,10.4,25.0,15.1,3.6,81,69,52,30.30,30.09,12,2,12,0.00
2013-12-25,17.4,10.3,4.2,8.3,2.0,-3.3,77,69,51,30.57,30.30,10,1,10,0.00
2013-12-26,27.0,20.7,16.0,22.7,16.0,7.7,90,82,66,30.49,30.13,9,0,9,0.00
2013-12-27,31.4,24.0,17.2,22.0,18.6,14.3,90,80,58,30.27,30.20,12,1,12,0.01
2013-12-28,38.1,29.5,17.2,32.0,25.0,14.5,90,84,74,30.20,30.01,13,1,13,0.01
2013-12-29,37.4,31.9,26.4,31.8,29.0,24.3,93,89,77,30.04,29.60,2,0,3,0.03
2013-12-30,36.2,22.2,-1.1,33.0,17.0,-6.1,93,80,64,30.23,29.61,22,1,22,0.00
2013-12-31,13.4,4.7,-3.3,7.0,-0.8,-7.9,94,78,59,30.23,30.08,6,0,6,0.00
2014-1-1,20.1,11.7,5.7,7.6,4.4,0.9,86,73,51,30.44,30.20,15,1,15,0.00
2014-1-2,8.3,3.9,1.3,3.2,-1.0,-3.4,92,80,74,30.44,30.01,6,0,6,0.00